sensor_id;sensor_type;location;lat;lon;timestamp;temperature;humidity
26186;DHT22;20067;48.764;9.176;2023-09-30T00:01:09;19.20;91.30
26186;DHT22;20067;48.764;9.176;2023-09-30T00:03:36;19.20;91.30
26186;DHT22;20067;48.764;9.176;2023-09-30T00:06:01;19.10;91.30
26186;DHT22;20067;48.764;9.176;2023-09-30T00:08:27;19.10;91.30
26186;DHT22;20067;48.764;9.176;2023-09-30T00:10:52;19.00;91.30
26186;DHT22;20067;48.764;9.176;2023-09-30T00:13:19;19.10;91.30
26186;DHT22;20067;48.764;9.176;2023-09-30T00:15:44;19.00;91.30
26186;DHT22;20067;48.764;9.176;2023-09-30T00:18:10;19.20;91.30
26186;DHT22;20067;48.764;9.176;2023-09-30T00:20:36;19.30;91.30
26186;DHT22;20067;48.764;9.176;2023-09-30T00:23:02;19.20;91.30
26186;DHT22;20067;48.764;9.176;2023-09-30T00:25:27;19.10;91.30
26186;DHT22;20067;48.764;9.176;2023-09-30T00:27:53;18.90;91.30
26186;DHT22;20067;48.764;9.176;2023-09-30T00:30:18;18.60;91.30
26186;DHT22;20067;48.764;9.176;2023-09-30T00:32:44;18.50;91.30
26186;DHT22;20067;48.764;9.176;2023-09-30T00:35:10;18.70;91.30
26186;DHT22;20067;48.764;9.176;2023-09-30T00:37:41;18.70;91.30
26186;DHT22;20067;48.764;9.176;2023-09-30T00:40:08;18.60;91.30
26186;DHT22;20067;48.764;9.176;2023-09-30T00:42:40;18.80;91.30
26186;DHT22;20067;48.764;9.176;2023-09-30T00:45:07;18.60;91.30
26186;DHT22;20067;48.764;9.176;2023-09-30T00:47:36;18.40;91.30
26186;DHT22;20067;48.764;9.176;2023-09-30T00:50:03;18.70;91.30
26186;DHT22;20067;48.764;9.176;2023-09-30T00:52:32;18.70;91.30
26186;DHT22;20067;48.764;9.176;2023-09-30T00:54:59;18.70;91.30
26186;DHT22;20067;48.764;9.176;2023-09-30T00:57:25;18.50;91.30
26186;DHT22;20067;48.764;9.176;2023-09-30T00:59:52;18.30;91.30
26186;DHT22;20067;48.764;9.176;2023-09-30T01:02:18;18.00;91.30
26186;DHT22;20067;48.764;9.176;2023-09-30T01:04:44;17.70;91.30
26186;DHT22;20067;48.764;9.176;2023-09-30T01:07:10;17.60;91.30
26186;DHT22;20067;48.764;9.176;2023-09-30T01:09:37;17.90;91.30
26186;DHT22;20067;48.764;9.176;2023-09-30T01:12:02;17.70;91.30
26186;DHT22;20067;48.764;9.176;2023-09-30T01:14:30;17.70;91.30
26186;DHT22;20067;48.764;9.176;2023-09-30T01:16:56;17.70;91.30
26186;DHT22;20067;48.764;9.176;2023-09-30T01:19:22;17.70;91.30
26186;DHT22;20067;48.764;9.176;2023-09-30T01:21:57;17.70;91.30
26186;DHT22;20067;48.764;9.176;2023-09-30T01:24:26;17.90;91.30
26186;DHT22;20067;48.764;9.176;2023-09-30T01:26:52;17.90;91.30
26186;DHT22;20067;48.764;9.176;2023-09-30T01:29:18;18.00;91.30
26186;DHT22;20067;48.764;9.176;2023-09-30T01:31:44;17.80;91.30
26186;DHT22;20067;48.764;9.176;2023-09-30T01:34:13;17.80;91.30
26186;DHT22;20067;48.764;9.176;2023-09-30T01:36:39;17.90;91.30
26186;DHT22;20067;48.764;9.176;2023-09-30T01:39:05;17.80;91.30
26186;DHT22;20067;48.764;9.176;2023-09-30T01:41:33;18.00;91.30
26186;DHT22;20067;48.764;9.176;2023-09-30T01:43:58;18.00;91.30
26186;DHT22;20067;48.764;9.176;2023-09-30T01:46:24;18.20;91.30
26186;DHT22;20067;48.764;9.176;2023-09-30T01:48:50;18.00;91.30
26186;DHT22;20067;48.764;9.176;2023-09-30T01:51:16;18.10;91.30
26186;DHT22;20067;48.764;9.176;2023-09-30T01:53:41;18.00;91.30
26186;DHT22;20067;48.764;9.176;2023-09-30T01:56:08;18.20;91.30
26186;DHT22;20067;48.764;9.176;2023-09-30T01:58:34;18.30;91.30
26186;DHT22;20067;48.764;9.176;2023-09-30T02:01:04;18.40;91.30
26186;DHT22;20067;48.764;9.176;2023-09-30T02:03:29;18.30;91.30
26186;DHT22;20067;48.764;9.176;2023-09-30T02:05:57;18.10;91.30
26186;DHT22;20067;48.764;9.176;2023-09-30T02:08:23;18.00;91.30
26186;DHT22;20067;48.764;9.176;2023-09-30T02:10:49;18.10;91.30
26186;DHT22;20067;48.764;9.176;2023-09-30T02:13:16;18.30;91.30
26186;DHT22;20067;48.764;9.176;2023-09-30T02:15:42;18.30;91.30
26186;DHT22;20067;48.764;9.176;2023-09-30T02:18:08;18.20;91.30
26186;DHT22;20067;48.764;9.176;2023-09-30T02:20:35;18.00;91.30
26186;DHT22;20067;48.764;9.176;2023-09-30T02:23:01;18.00;91.30
26186;DHT22;20067;48.764;9.176;2023-09-30T02:25:27;17.90;91.30
26186;DHT22;20067;48.764;9.176;2023-09-30T02:27:54;18.20;91.30
26186;DHT22;20067;48.764;9.176;2023-09-30T02:30:20;18.20;91.30
26186;DHT22;20067;48.764;9.176;2023-09-30T02:32:46;18.20;91.30
26186;DHT22;20067;48.764;9.176;2023-09-30T02:35:12;18.20;91.30
26186;DHT22;20067;48.764;9.176;2023-09-30T02:37:40;18.20;91.30
26186;DHT22;20067;48.764;9.176;2023-09-30T02:40:08;18.00;91.30
26186;DHT22;20067;48.764;9.176;2023-09-30T02:42:40;17.90;91.30
26186;DHT22;20067;48.764;9.176;2023-09-30T02:45:07;17.90;91.30
26186;DHT22;20067;48.764;9.176;2023-09-30T02:47:36;17.80;91.30
26186;DHT22;20067;48.764;9.176;2023-09-30T02:50:04;17.80;91.30
26186;DHT22;20067;48.764;9.176;2023-09-30T02:52:30;17.60;91.30
26186;DHT22;20067;48.764;9.176;2023-09-30T02:54:57;17.70;91.30
26186;DHT22;20067;48.764;9.176;2023-09-30T02:57:24;17.40;91.30
26186;DHT22;20067;48.764;9.176;2023-09-30T02:59:50;17.10;91.30
26186;DHT22;20067;48.764;9.176;2023-09-30T03:02:18;16.90;91.30
26186;DHT22;20067;48.764;9.176;2023-09-30T03:04:47;17.00;91.30
26186;DHT22;20067;48.764;9.176;2023-09-30T03:07:13;17.20;91.30
26186;DHT22;20067;48.764;9.176;2023-09-30T03:09:39;17.40;91.30
26186;DHT22;20067;48.764;9.176;2023-09-30T03:12:05;17.60;91.30
26186;DHT22;20067;48.764;9.176;2023-09-30T03:14:32;17.40;91.30
26186;DHT22;20067;48.764;9.176;2023-09-30T03:16:58;17.70;91.30
26186;DHT22;20067;48.764;9.176;2023-09-30T03:19:24;17.90;91.30
26186;DHT22;20067;48.764;9.176;2023-09-30T03:21:50;17.90;91.30
26186;DHT22;20067;48.764;9.176;2023-09-30T03:24:16;17.90;91.30
26186;DHT22;20067;48.764;9.176;2023-09-30T03:26:42;18.00;91.30
26186;DHT22;20067;48.764;9.176;2023-09-30T03:29:08;17.50;91.30
26186;DHT22;20067;48.764;9.176;2023-09-30T03:31:37;17.40;91.30
26186;DHT22;20067;48.764;9.176;2023-09-30T03:34:03;17.30;91.30
26186;DHT22;20067;48.764;9.176;2023-09-30T03:36:29;17.60;91.30
26186;DHT22;20067;48.764;9.176;2023-09-30T03:38:55;17.90;91.30
26186;DHT22;20067;48.764;9.176;2023-09-30T03:41:24;17.90;91.30
26186;DHT22;20067;48.764;9.176;2023-09-30T03:43:51;18.10;91.30
26186;DHT22;20067;48.764;9.176;2023-09-30T03:46:17;18.30;91.30
26186;DHT22;20067;48.764;9.176;2023-09-30T03:48:43;18.50;91.30
26186;DHT22;20067;48.764;9.176;2023-09-30T03:51:13;18.40;91.30
26186;DHT22;20067;48.764;9.176;2023-09-30T03:53:46;18.20;91.30
26186;DHT22;20067;48.764;9.176;2023-09-30T03:56:12;18.10;91.30
26186;DHT22;20067;48.764;9.176;2023-09-30T03:58:39;17.90;91.30
26186;DHT22;20067;48.764;9.176;2023-09-30T04:01:05;17.70;91.30
26186;DHT22;20067;48.764;9.176;2023-09-30T04:03:31;17.50;91.30
26186;DHT22;20067;48.764;9.176;2023-09-30T04:06:05;17.60;91.30
26186;DHT22;20067;48.764;9.176;2023-09-30T04:08:32;17.50;91.30
26186;DHT22;20067;48.764;9.176;2023-09-30T04:10:59;17.40;91.30
26186;DHT22;20067;48.764;9.176;2023-09-30T04:13:26;17.40;91.30
26186;DHT22;20067;48.764;9.176;2023-09-30T04:15:51;17.70;91.30
26186;DHT22;20067;48.764;9.176;2023-09-30T04:18:17;17.80;91.30
26186;DHT22;20067;48.764;9.176;2023-09-30T04:20:45;17.90;91.30
26186;DHT22;20067;48.764;9.176;2023-09-30T04:23:12;17.90;91.30
26186;DHT22;20067;48.764;9.176;2023-09-30T04:25:38;18.00;91.30
26186;DHT22;20067;48.764;9.176;2023-09-30T04:28:04;17.70;91.30
26186;DHT22;20067;48.764;9.176;2023-09-30T04:30:29;17.60;91.30
26186;DHT22;20067;48.764;9.176;2023-09-30T04:33:00;17.90;91.30
26186;DHT22;20067;48.764;9.176;2023-09-30T04:35:26;18.00;91.30
26186;DHT22;20067;48.764;9.176;2023-09-30T04:37:52;17.50;91.30
26186;DHT22;20067;48.764;9.176;2023-09-30T04:40:18;17.60;91.30
26186;DHT22;20067;48.764;9.176;2023-09-30T04:42:47;17.30;91.30
26186;DHT22;20067;48.764;9.176;2023-09-30T04:45:14;17.20;91.30
26186;DHT22;20067;48.764;9.176;2023-09-30T04:47:45;17.30;91.30
26186;DHT22;20067;48.764;9.176;2023-09-30T04:50:11;17.40;91.30
26186;DHT22;20067;48.764;9.176;2023-09-30T04:52:38;17.60;91.30
26186;DHT22;20067;48.764;9.176;2023-09-30T04:55:06;18.00;91.30
26186;DHT22;20067;48.764;9.176;2023-09-30T04:57:33;17.90;91.30
26186;DHT22;20067;48.764;9.176;2023-09-30T04:59:58;18.10;91.30
26186;DHT22;20067;48.764;9.176;2023-09-30T05:02:24;18.30;91.30
26186;DHT22;20067;48.764;9.176;2023-09-30T05:04:51;18.20;91.30
26186;DHT22;20067;48.764;9.176;2023-09-30T05:07:17;17.70;91.30
26186;DHT22;20067;48.764;9.176;2023-09-30T05:09:43;17.50;91.30
26186;DHT22;20067;48.764;9.176;2023-09-30T05:12:09;17.60;91.30
26186;DHT22;20067;48.764;9.176;2023-09-30T05:14:36;17.40;91.30
26186;DHT22;20067;48.764;9.176;2023-09-30T05:17:04;17.70;91.30
26186;DHT22;20067;48.764;9.176;2023-09-30T05:19:30;18.00;91.30
26186;DHT22;20067;48.764;9.176;2023-09-30T05:21:57;18.00;91.30
26186;DHT22;20067;48.764;9.176;2023-09-30T05:24:23;18.00;91.30
26186;DHT22;20067;48.764;9.176;2023-09-30T05:26:49;18.00;91.30
26186;DHT22;20067;48.764;9.176;2023-09-30T05:29:14;17.90;91.30
26186;DHT22;20067;48.764;9.176;2023-09-30T05:31:40;17.40;91.30
26186;DHT22;20067;48.764;9.176;2023-09-30T05:34:05;17.30;91.30
26186;DHT22;20067;48.764;9.176;2023-09-30T05:36:31;17.50;91.30
26186;DHT22;20067;48.764;9.176;2023-09-30T05:38:57;17.80;91.30
26186;DHT22;20067;48.764;9.176;2023-09-30T05:41:23;17.90;91.30
26186;DHT22;20067;48.764;9.176;2023-09-30T05:43:48;17.60;91.30
26186;DHT22;20067;48.764;9.176;2023-09-30T05:46:15;17.40;91.30
26186;DHT22;20067;48.764;9.176;2023-09-30T05:48:41;17.00;91.30
26186;DHT22;20067;48.764;9.176;2023-09-30T05:51:07;17.10;91.30
26186;DHT22;20067;48.764;9.176;2023-09-30T05:53:33;17.60;91.30
26186;DHT22;20067;48.764;9.176;2023-09-30T05:55:59;17.70;91.30
26186;DHT22;20067;48.764;9.176;2023-09-30T05:58:25;17.70;91.30
26186;DHT22;20067;48.764;9.176;2023-09-30T06:00:52;17.40;91.30
26186;DHT22;20067;48.764;9.176;2023-09-30T06:03:18;17.40;91.30
26186;DHT22;20067;48.764;9.176;2023-09-30T06:05:44;17.60;91.30
26186;DHT22;20067;48.764;9.176;2023-09-30T06:08:10;17.70;91.30
26186;DHT22;20067;48.764;9.176;2023-09-30T06:10:40;17.90;91.30
26186;DHT22;20067;48.764;9.176;2023-09-30T06:13:08;17.90;91.30
26186;DHT22;20067;48.764;9.176;2023-09-30T06:15:37;17.80;91.30
26186;DHT22;20067;48.764;9.176;2023-09-30T06:18:06;17.70;91.30
26186;DHT22;20067;48.764;9.176;2023-09-30T06:20:32;17.40;91.30
26186;DHT22;20067;48.764;9.176;2023-09-30T06:22:59;17.50;91.30
26186;DHT22;20067;48.764;9.176;2023-09-30T06:25:26;17.90;91.30
26186;DHT22;20067;48.764;9.176;2023-09-30T06:27:53;18.10;91.30
26186;DHT22;20067;48.764;9.176;2023-09-30T06:30:24;17.90;91.30
26186;DHT22;20067;48.764;9.176;2023-09-30T06:32:56;17.50;91.30
26186;DHT22;20067;48.764;9.176;2023-09-30T06:35:22;17.20;91.30
26186;DHT22;20067;48.764;9.176;2023-09-30T06:37:48;17.00;91.30
26186;DHT22;20067;48.764;9.176;2023-09-30T06:40:14;16.90;91.30
26186;DHT22;20067;48.764;9.176;2023-09-30T06:42:40;16.90;91.30
26186;DHT22;20067;48.764;9.176;2023-09-30T06:45:06;17.00;91.30
26186;DHT22;20067;48.764;9.176;2023-09-30T06:47:33;17.00;91.30
26186;DHT22;20067;48.764;9.176;2023-09-30T06:50:01;17.10;91.30
26186;DHT22;20067;48.764;9.176;2023-09-30T06:52:33;17.00;91.30
26186;DHT22;20067;48.764;9.176;2023-09-30T06:54:59;17.10;91.30
26186;DHT22;20067;48.764;9.176;2023-09-30T06:57:25;17.10;91.30
26186;DHT22;20067;48.764;9.176;2023-09-30T06:59:51;17.30;91.30
26186;DHT22;20067;48.764;9.176;2023-09-30T07:02:16;17.40;91.30
26186;DHT22;20067;48.764;9.176;2023-09-30T07:04:42;17.50;91.30
26186;DHT22;20067;48.764;9.176;2023-09-30T07:07:07;17.40;91.30
26186;DHT22;20067;48.764;9.176;2023-09-30T07:09:33;17.30;91.30
26186;DHT22;20067;48.764;9.176;2023-09-30T07:11:58;17.30;91.30
26186;DHT22;20067;48.764;9.176;2023-09-30T07:14:24;17.30;91.30
26186;DHT22;20067;48.764;9.176;2023-09-30T07:16:50;17.30;91.30
26186;DHT22;20067;48.764;9.176;2023-09-30T07:19:16;17.10;91.30
26186;DHT22;20067;48.764;9.176;2023-09-30T07:21:41;17.30;91.30
26186;DHT22;20067;48.764;9.176;2023-09-30T07:24:07;17.40;91.30
26186;DHT22;20067;48.764;9.176;2023-09-30T07:26:33;17.20;91.30
26186;DHT22;20067;48.764;9.176;2023-09-30T07:28:58;17.80;91.30
26186;DHT22;20067;48.764;9.176;2023-09-30T07:31:24;18.20;91.30
26186;DHT22;20067;48.764;9.176;2023-09-30T07:33:50;18.30;91.30
26186;DHT22;20067;48.764;9.176;2023-09-30T07:36:16;18.00;91.30
26186;DHT22;20067;48.764;9.176;2023-09-30T07:38:42;17.50;91.30
26186;DHT22;20067;48.764;9.176;2023-09-30T07:41:07;17.50;91.30
26186;DHT22;20067;48.764;9.176;2023-09-30T07:43:35;17.60;91.30
26186;DHT22;20067;48.764;9.176;2023-09-30T07:46:06;17.70;91.30
26186;DHT22;20067;48.764;9.176;2023-09-30T07:48:31;17.50;91.30
26186;DHT22;20067;48.764;9.176;2023-09-30T07:50:58;17.40;91.30
26186;DHT22;20067;48.764;9.176;2023-09-30T07:53:23;17.50;91.30
26186;DHT22;20067;48.764;9.176;2023-09-30T07:55:49;17.70;91.30
26186;DHT22;20067;48.764;9.176;2023-09-30T07:58:15;17.90;91.30
26186;DHT22;20067;48.764;9.176;2023-09-30T08:00:40;18.00;91.30
26186;DHT22;20067;48.764;9.176;2023-09-30T08:03:06;18.10;91.30
26186;DHT22;20067;48.764;9.176;2023-09-30T08:05:32;18.00;91.30
26186;DHT22;20067;48.764;9.176;2023-09-30T08:07:57;18.40;91.30
26186;DHT22;20067;48.764;9.176;2023-09-30T08:10:23;19.00;91.30
26186;DHT22;20067;48.764;9.176;2023-09-30T08:12:48;19.10;91.30
26186;DHT22;20067;48.764;9.176;2023-09-30T08:15:15;19.40;91.30
26186;DHT22;20067;48.764;9.176;2023-09-30T08:17:41;19.50;91.30
26186;DHT22;20067;48.764;9.176;2023-09-30T08:20:07;19.40;91.30
26186;DHT22;20067;48.764;9.176;2023-09-30T08:22:36;19.90;91.30
26186;DHT22;20067;48.764;9.176;2023-09-30T08:25:02;19.70;91.30
26186;DHT22;20067;48.764;9.176;2023-09-30T08:27:28;19.60;91.30
26186;DHT22;20067;48.764;9.176;2023-09-30T08:29:54;19.40;91.30
26186;DHT22;20067;48.764;9.176;2023-09-30T08:32:19;19.20;91.30
26186;DHT22;20067;48.764;9.176;2023-09-30T08:34:45;19.10;91.30
26186;DHT22;20067;48.764;9.176;2023-09-30T08:37:10;19.50;91.30
26186;DHT22;20067;48.764;9.176;2023-09-30T08:39:39;19.90;91.30
26186;DHT22;20067;48.764;9.176;2023-09-30T08:42:09;20.10;90.50
26186;DHT22;20067;48.764;9.176;2023-09-30T08:44:38;20.20;90.10
26186;DHT22;20067;48.764;9.176;2023-09-30T08:47:06;20.30;89.90
26186;DHT22;20067;48.764;9.176;2023-09-30T08:49:34;20.90;87.80
26186;DHT22;20067;48.764;9.176;2023-09-30T08:52:02;21.40;87.60
26186;DHT22;20067;48.764;9.176;2023-09-30T08:54:31;21.10;87.20
26186;DHT22;20067;48.764;9.176;2023-09-30T08:56:57;21.30;88.20
26186;DHT22;20067;48.764;9.176;2023-09-30T08:59:24;22.50;84.10
26186;DHT22;20067;48.764;9.176;2023-09-30T09:01:52;23.00;82.40
26186;DHT22;20067;48.764;9.176;2023-09-30T09:04:18;22.20;82.50
26186;DHT22;20067;48.764;9.176;2023-09-30T09:06:43;21.40;84.40
26186;DHT22;20067;48.764;9.176;2023-09-30T09:09:16;21.30;85.20
26186;DHT22;20067;48.764;9.176;2023-09-30T09:11:45;22.10;84.30
26186;DHT22;20067;48.764;9.176;2023-09-30T09:14:12;22.80;81.30
26186;DHT22;20067;48.764;9.176;2023-09-30T09:16:47;22.50;82.30
26186;DHT22;20067;48.764;9.176;2023-09-30T09:19:15;21.70;83.90
26186;DHT22;20067;48.764;9.176;2023-09-30T09:21:55;21.40;84.40
26186;DHT22;20067;48.764;9.176;2023-09-30T09:24:27;21.30;85.90
26186;DHT22;20067;48.764;9.176;2023-09-30T09:27:12;22.20;83.70
26186;DHT22;20067;48.764;9.176;2023-09-30T09:29:40;22.70;81.30
26186;DHT22;20067;48.764;9.176;2023-09-30T09:34:33;21.40;85.70
26186;DHT22;20067;48.764;9.176;2023-09-30T09:36:59;21.10;85.20
26186;DHT22;20067;48.764;9.176;2023-09-30T09:39:30;22.10;83.40
26186;DHT22;20067;48.764;9.176;2023-09-30T09:41:56;22.30;81.80
26186;DHT22;20067;48.764;9.176;2023-09-30T09:44:23;22.30;83.00
26186;DHT22;20067;48.764;9.176;2023-09-30T09:46:51;22.60;81.10
26186;DHT22;20067;48.764;9.176;2023-09-30T09:49:17;22.40;82.10
26186;DHT22;20067;48.764;9.176;2023-09-30T09:51:45;21.80;83.20
26186;DHT22;20067;48.764;9.176;2023-09-30T09:54:12;21.20;84.80
26186;DHT22;20067;48.764;9.176;2023-09-30T09:56:39;20.30;87.90
26186;DHT22;20067;48.764;9.176;2023-09-30T09:59:05;20.20;88.70
26186;DHT22;20067;48.764;9.176;2023-09-30T10:04:47;21.90;83.90
26186;DHT22;20067;48.764;9.176;2023-09-30T10:07:27;22.30;83.50
26186;DHT22;20067;48.764;9.176;2023-09-30T10:09:55;22.70;81.40
26186;DHT22;20067;48.764;9.176;2023-09-30T10:12:24;22.70;80.70
26186;DHT22;20067;48.764;9.176;2023-09-30T10:14:52;22.20;83.20
26186;DHT22;20067;48.764;9.176;2023-09-30T10:17:18;22.70;81.00
26186;DHT22;20067;48.764;9.176;2023-09-30T10:20:03;24.10;77.80
26186;DHT22;20067;48.764;9.176;2023-09-30T10:22:29;25.00;74.10
26186;DHT22;20067;48.764;9.176;2023-09-30T10:24:59;25.00;72.80
26186;DHT22;20067;48.764;9.176;2023-09-30T10:40:49;24.60;73.70
26186;DHT22;20067;48.764;9.176;2023-09-30T10:43:32;26.90;69.90
26186;DHT22;20067;48.764;9.176;2023-09-30T10:46:02;27.60;66.30
26186;DHT22;20067;48.764;9.176;2023-09-30T10:51:01;26.60;67.90
26186;DHT22;20067;48.764;9.176;2023-09-30T10:53:43;26.60;68.30
26186;DHT22;20067;48.764;9.176;2023-09-30T10:56:09;26.50;67.80
26186;DHT22;20067;48.764;9.176;2023-09-30T11:01:08;27.20;66.50
26186;DHT22;20067;48.764;9.176;2023-09-30T11:03:34;27.00;66.20
26186;DHT22;20067;48.764;9.176;2023-09-30T11:05:59;24.80;70.40
26186;DHT22;20067;48.764;9.176;2023-09-30T11:08:28;24.70;70.70
26186;DHT22;20067;48.764;9.176;2023-09-30T11:10:57;24.00;72.30
26186;DHT22;20067;48.764;9.176;2023-09-30T11:13:23;24.10;72.60
26186;DHT22;20067;48.764;9.176;2023-09-30T11:16:03;23.20;74.10
26186;DHT22;20067;48.764;9.176;2023-09-30T11:18:34;23.60;74.00
26186;DHT22;20067;48.764;9.176;2023-09-30T11:21:08;24.50;72.50
26186;DHT22;20067;48.764;9.176;2023-09-30T11:23:35;24.80;71.00
26186;DHT22;20067;48.764;9.176;2023-09-30T11:26:02;25.60;70.20
26186;DHT22;20067;48.764;9.176;2023-09-30T11:28:37;26.60;67.10
26186;DHT22;20067;48.764;9.176;2023-09-30T11:31:03;25.40;69.10
26186;DHT22;20067;48.764;9.176;2023-09-30T11:33:30;25.90;68.20
26186;DHT22;20067;48.764;9.176;2023-09-30T11:36:06;25.70;68.40
26186;DHT22;20067;48.764;9.176;2023-09-30T11:38:34;24.40;70.30
26186;DHT22;20067;48.764;9.176;2023-09-30T11:41:01;23.30;73.80
26186;DHT22;20067;48.764;9.176;2023-09-30T11:43:34;23.70;74.80
26186;DHT22;20067;48.764;9.176;2023-09-30T11:46:08;24.20;73.70
26186;DHT22;20067;48.764;9.176;2023-09-30T11:48:56;24.00;74.20
26186;DHT22;20067;48.764;9.176;2023-09-30T11:51:23;23.30;73.60
26186;DHT22;20067;48.764;9.176;2023-09-30T11:53:53;23.30;72.90
26186;DHT22;20067;48.764;9.176;2023-09-30T11:56:19;22.80;71.60
26186;DHT22;20067;48.764;9.176;2023-09-30T11:58:45;22.80;72.10
26186;DHT22;20067;48.764;9.176;2023-09-30T12:01:11;22.60;73.00
26186;DHT22;20067;48.764;9.176;2023-09-30T12:03:39;22.80;73.70
26186;DHT22;20067;48.764;9.176;2023-09-30T12:06:08;22.80;71.60
26186;DHT22;20067;48.764;9.176;2023-09-30T12:08:35;23.50;71.60
26186;DHT22;20067;48.764;9.176;2023-09-30T12:11:03;23.80;71.80
26186;DHT22;20067;48.764;9.176;2023-09-30T12:13:29;24.10;70.90
26186;DHT22;20067;48.764;9.176;2023-09-30T12:15:54;25.50;68.10
26186;DHT22;20067;48.764;9.176;2023-09-30T12:18:20;25.40;67.50
26186;DHT22;20067;48.764;9.176;2023-09-30T12:20:50;25.10;68.40
26186;DHT22;20067;48.764;9.176;2023-09-30T12:23:18;25.90;66.80
26186;DHT22;20067;48.764;9.176;2023-09-30T12:25:44;25.60;66.60
26186;DHT22;20067;48.764;9.176;2023-09-30T12:28:09;24.10;69.50
26186;DHT22;20067;48.764;9.176;2023-09-30T12:30:35;23.10;71.60
26186;DHT22;20067;48.764;9.176;2023-09-30T12:33:01;23.50;69.80
26186;DHT22;20067;48.764;9.176;2023-09-30T12:35:27;23.90;68.20
26186;DHT22;20067;48.764;9.176;2023-09-30T12:37:52;23.60;68.10
26186;DHT22;20067;48.764;9.176;2023-09-30T12:40:18;23.90;67.50
26186;DHT22;20067;48.764;9.176;2023-09-30T12:42:44;23.30;68.20
26186;DHT22;20067;48.764;9.176;2023-09-30T12:45:12;22.60;69.90
26186;DHT22;20067;48.764;9.176;2023-09-30T12:47:39;22.70;70.10
26186;DHT22;20067;48.764;9.176;2023-09-30T12:50:05;23.20;69.00
26186;DHT22;20067;48.764;9.176;2023-09-30T12:52:34;22.90;71.80
26186;DHT22;20067;48.764;9.176;2023-09-30T12:55:00;23.00;73.00
26186;DHT22;20067;48.764;9.176;2023-09-30T12:57:28;23.20;73.50
26186;DHT22;20067;48.764;9.176;2023-09-30T12:59:54;24.30;70.90
26186;DHT22;20067;48.764;9.176;2023-09-30T13:02:19;25.40;68.00
26186;DHT22;20067;48.764;9.176;2023-09-30T13:04:46;26.10;66.20
26186;DHT22;20067;48.764;9.176;2023-09-30T13:07:12;26.70;64.10
26186;DHT22;20067;48.764;9.176;2023-09-30T13:09:39;27.30;62.70
26186;DHT22;20067;48.764;9.176;2023-09-30T13:12:05;28.00;62.40
26186;DHT22;20067;48.764;9.176;2023-09-30T13:14:30;28.30;60.30
26186;DHT22;20067;48.764;9.176;2023-09-30T13:16:56;27.40;61.60
26186;DHT22;20067;48.764;9.176;2023-09-30T13:19:22;26.80;62.40
26186;DHT22;20067;48.764;9.176;2023-09-30T13:21:51;26.80;62.10
26186;DHT22;20067;48.764;9.176;2023-09-30T13:24:19;26.80;62.20
26186;DHT22;20067;48.764;9.176;2023-09-30T13:26:45;25.80;63.70
26186;DHT22;20067;48.764;9.176;2023-09-30T13:29:11;24.90;66.30
26186;DHT22;20067;48.764;9.176;2023-09-30T13:31:38;25.00;67.20
26186;DHT22;20067;48.764;9.176;2023-09-30T13:34:05;25.30;66.50
26186;DHT22;20067;48.764;9.176;2023-09-30T13:36:31;24.80;66.90
26186;DHT22;20067;48.764;9.176;2023-09-30T13:38:56;25.20;65.40
26186;DHT22;20067;48.764;9.176;2023-09-30T13:41:22;25.40;64.70
26186;DHT22;20067;48.764;9.176;2023-09-30T13:43:48;24.40;66.40
26186;DHT22;20067;48.764;9.176;2023-09-30T13:46:13;25.70;64.60
26186;DHT22;20067;48.764;9.176;2023-09-30T13:48:39;26.20;64.40
26186;DHT22;20067;48.764;9.176;2023-09-30T13:51:09;25.10;66.70
26186;DHT22;20067;48.764;9.176;2023-09-30T13:53:36;24.00;69.70
26186;DHT22;20067;48.764;9.176;2023-09-30T13:56:02;22.90;72.10
26186;DHT22;20067;48.764;9.176;2023-09-30T13:58:31;22.40;73.90
26186;DHT22;20067;48.764;9.176;2023-09-30T14:00:56;22.20;74.70
26186;DHT22;20067;48.764;9.176;2023-09-30T14:03:22;22.00;75.40
26186;DHT22;20067;48.764;9.176;2023-09-30T14:05:50;22.20;75.10
26186;DHT22;20067;48.764;9.176;2023-09-30T14:08:15;22.40;74.70
26186;DHT22;20067;48.764;9.176;2023-09-30T14:10:41;22.40;74.70
26186;DHT22;20067;48.764;9.176;2023-09-30T14:13:08;22.10;75.00
26186;DHT22;20067;48.764;9.176;2023-09-30T14:15:34;22.70;74.50
26186;DHT22;20067;48.764;9.176;2023-09-30T14:17:59;23.60;71.90
26186;DHT22;20067;48.764;9.176;2023-09-30T14:20:25;23.20;71.50
26186;DHT22;20067;48.764;9.176;2023-09-30T14:22:51;23.40;72.40
26186;DHT22;20067;48.764;9.176;2023-09-30T14:25:20;24.10;70.70
26186;DHT22;20067;48.764;9.176;2023-09-30T14:27:47;24.10;70.50
26186;DHT22;20067;48.764;9.176;2023-09-30T14:30:13;23.90;71.30
26186;DHT22;20067;48.764;9.176;2023-09-30T14:32:39;23.20;71.70
26186;DHT22;20067;48.764;9.176;2023-09-30T14:35:06;23.20;71.70
26186;DHT22;20067;48.764;9.176;2023-09-30T14:37:32;23.70;71.70
26186;DHT22;20067;48.764;9.176;2023-09-30T14:39:57;24.00;69.90
26186;DHT22;20067;48.764;9.176;2023-09-30T14:42:23;23.70;70.80
26186;DHT22;20067;48.764;9.176;2023-09-30T14:44:49;23.70;70.60
26186;DHT22;20067;48.764;9.176;2023-09-30T14:47:14;22.90;71.00
26186;DHT22;20067;48.764;9.176;2023-09-30T14:49:40;22.60;73.10
26186;DHT22;20067;48.764;9.176;2023-09-30T14:52:06;22.70;73.20
26186;DHT22;20067;48.764;9.176;2023-09-30T14:54:32;22.90;73.70
26186;DHT22;20067;48.764;9.176;2023-09-30T14:56:57;23.10;72.60
26186;DHT22;20067;48.764;9.176;2023-09-30T14:59:23;23.40;71.70
26186;DHT22;20067;48.764;9.176;2023-09-30T15:01:49;23.60;72.10
26186;DHT22;20067;48.764;9.176;2023-09-30T15:04:15;23.10;72.10
26186;DHT22;20067;48.764;9.176;2023-09-30T15:06:44;23.10;72.60
26186;DHT22;20067;48.764;9.176;2023-09-30T15:09:11;23.00;72.50
26186;DHT22;20067;48.764;9.176;2023-09-30T15:11:37;22.90;72.30
26186;DHT22;20067;48.764;9.176;2023-09-30T15:14:03;22.80;73.10
26186;DHT22;20067;48.764;9.176;2023-09-30T15:16:32;23.20;71.90
26186;DHT22;20067;48.764;9.176;2023-09-30T15:18:58;22.80;72.20
26186;DHT22;20067;48.764;9.176;2023-09-30T15:21:23;22.30;73.50
26186;DHT22;20067;48.764;9.176;2023-09-30T15:23:52;22.30;73.70
26186;DHT22;20067;48.764;9.176;2023-09-30T15:26:18;22.00;74.60
26186;DHT22;20067;48.764;9.176;2023-09-30T15:28:45;21.90;74.60
26186;DHT22;20067;48.764;9.176;2023-09-30T15:31:10;21.90;74.90
26186;DHT22;20067;48.764;9.176;2023-09-30T15:33:36;22.00;74.60
26186;DHT22;20067;48.764;9.176;2023-09-30T15:36:12;21.90;74.90
26186;DHT22;20067;48.764;9.176;2023-09-30T15:38:38;21.90;74.60
26186;DHT22;20067;48.764;9.176;2023-09-30T15:41:04;21.50;75.30
26186;DHT22;20067;48.764;9.176;2023-09-30T15:43:30;21.40;75.60
26186;DHT22;20067;48.764;9.176;2023-09-30T15:45:58;21.50;75.50
26186;DHT22;20067;48.764;9.176;2023-09-30T15:48:24;21.90;75.40
26186;DHT22;20067;48.764;9.176;2023-09-30T15:50:50;22.20;73.80
26186;DHT22;20067;48.764;9.176;2023-09-30T15:53:16;22.30;73.40